Hlavní strana
METAR-TAF:

METAR-TAF

Letiště :

Pisa, Itálie

zeměpisná šířka: 43-41N, zeměpisná délka: 010-23E, výška: 2 m

Aktuální stav počasí

Zpráva byla vytvořena před 35 minutami, v 20:45 UTC
Jihojihozápadní vítr 1 kt
Teplota 21°C
Vlhkost vzduchu 88%
Tlak 1019 hPa
Viditelnost 10 km a více
Žádná oblačnost pod 1500 m, nevyskytují se cumulonimby.

METAR: LIRP 262045Z 20001KT CAVOK 21/19 Q1019 NOSIG

Čas: 23:20 (21:20 UTC)

Předpověď počasí

Zpráva byla vytvořena před 4 hodinami a 20 minutami, v 17:00 UTC
Předpověď platná od 26 v 18 UTC do 27 v 18 UTC
Východní vítr 5 kt
Viditelnost 10 km a více
Žádná oblačnost pod 1500 m, nevyskytují se cumulonimby.
Dočasný
od 27 v 01 UTC do 27 v 06 UTC
Viditelnost: 3000 m
kouřmo
Pravděpodobnost 40% :
Dočasný
od 27 v 11 UTC do 27 v 18 UTC
Viditelnost: 5000 m
Skoro jasno ve výšce 2000 ft, Cumulonimbus.
Polojasno ve výšce 3000 ft
dešťové přeháňky

TAF: LIRP 261700Z 2618/2718 10005KT CAVOK TEMPO 2701/2706 3000 BR PROB40 TEMPO 2711/2718 5000 SHRA FEW020CB SCT030

Stav a předpovědi počasí z více než 4 000 letišť (zprávy METAR a TAF).

Červené a žluté tečky na mapě představují dostupné meteorologické stanice.

Když kurzor umístíte na tečku, zobrazí se název stanice.

Pak kliknutím zobrazíte stav a předpověď počasí.

Chcete-li změnit mapu, kliknutím na zelené tlačítko se znaménkem +mapu přiblížíte, kliknutím na zelené tlačítko se znaménkem – mapu oddálíte a kliknutím na zelené šipky přejdete na sousední mapy.


METAR-TAF: